Time;durP1;ratioP1;P1;durP2;ratioP2;P2;SDS_P1;SDS_P2;PMS_P1;PMS_P2;Temp;Humidity;BMP_temperature;BMP_pressure;BME280_temperature;BME280_humidity;BME280_pressure;Samples;Min_cycle;Max_cycle;Signal;HPM_P1;HPM_P2
2024/02/06 00:01:19;;;;;;;4.23;1.93;;;;;;;7.95;100.00;99622.95;4804360;58;1171992;-73
2024/02/06 00:06:24;;;;;;;5.50;1.30;;;;;;;7.93;100.00;99642.84;4778040;59;1136945;-76
2024/02/06 00:11:30;;;;;;;2.37;0.93;;;;;;;7.91;100.00;99628.13;4813831;58;1136991;-74
2024/02/06 00:16:35;;;;;;;4.63;1.73;;;;;;;7.89;100.00;99637.46;4883939;57;1136909;-74
2024/02/06 00:21:41;;;;;;;4.43;1.23;;;;;;;7.90;100.00;99627.77;4939125;57;1136667;-75
2024/02/06 00:26:46;;;;;;;8.00;1.67;;;;;;;7.93;100.00;99635.42;4988703;57;1136530;-75
2024/02/06 00:31:52;;;;;;;3.50;1.07;;;;;;;7.95;100.00;99626.89;4868586;58;1136685;-75
2024/02/06 00:36:58;;;;;;;3.75;1.60;;;;;;;7.98;100.00;99629.29;4867980;58;1149331;-73
2024/02/06 00:42:03;;;;;;;3.03;1.00;;;;;;;8.01;100.00;99629.88;4717473;60;1140862;-74
2024/02/06 00:47:09;;;;;;;5.47;1.30;;;;;;;8.04;100.00;99624.38;4719120;60;1136630;-76
2024/02/06 00:52:15;;;;;;;5.10;2.10;;;;;;;8.07;100.00;99625.45;4794307;59;1136379;-73
2024/02/06 00:57:20;;;;;;;5.00;1.27;;;;;;;8.04;100.00;99632.27;4856049;59;1136699;-75
2024/02/06 01:02:28;;;;;;;11.03;1.47;;;;;;;8.04;100.00;99620.42;4827003;58;1136685;-76
2024/02/06 01:07:34;;;;;;;11.03;2.83;;;;;;;7.99;100.00;99623.90;4814933;59;1138790;-72
2024/02/06 01:12:40;;;;;;;8.37;1.50;;;;;;;7.91;100.00;99621.06;4851617;58;1139231;-72
2024/02/06 01:17:45;;;;;;;8.03;2.43;;;;;;;7.84;100.00;99611.98;4864899;58;1136671;-73
2024/02/06 01:22:51;;;;;;;8.27;2.87;;;;;;;7.79;100.00;99619.43;4840860;58;1136696;-72
2024/02/06 01:27:57;;;;;;;14.50;2.57;;;;;;;7.70;100.00;99618.83;4817129;58;1136629;-74
2024/02/06 01:33:02;;;;;;;8.50;3.40;;;;;;;7.60;100.00;99602.12;4808860;59;1138611;-74
2024/02/06 01:38:08;;;;;;;13.25;3.95;;;;;;;7.63;100.00;99607.98;4740999;60;1136643;-74
2024/02/06 01:43:13;;;;;;;10.37;4.00;;;;;;;7.66;100.00;99604.23;4678729;59;1139579;-75
2024/02/06 01:48:19;;;;;;;16.50;3.47;;;;;;;7.67;100.00;99600.65;4731151;59;1138793;-76
2024/02/06 01:53:26;;;;;;;12.00;4.30;;;;;;;7.65;100.00;99603.88;4844104;59;1138538;-75
2024/02/06 01:58:32;;;;;;;12.60;4.63;;;;;;;7.63;100.00;99591.35;4850546;59;1138480;-73
2024/02/06 02:03:39;;;;;;;12.03;5.87;;;;;;;7.58;100.00;99579.87;4820492;59;1138747;-76
2024/02/06 02:08:46;;;;;;;12.33;4.47;;;;;;;7.59;100.00;99580.70;4911662;57;1138979;-74
2024/02/06 02:13:52;;;;;;;9.53;4.23;;;;;;;7.54;100.00;99574.48;4749262;59;1138624;-74
2024/02/06 02:18:58;;;;;;;8.03;4.57;;;;;;;7.54;100.00;99574.48;4774526;60;1136909;-75
2024/02/06 02:24:04;;;;;;;10.77;3.83;;;;;;;7.51;100.00;99566.83;4787561;59;1136750;-74
2024/02/06 02:29:11;;;;;;;10.82;3.45;;;;;;;7.51;100.00;99564.68;4800301;58;1139038;-72
2024/02/06 02:34:16;;;;;;;10.43;4.90;;;;;;;7.51;100.00;99568.63;4745893;60;1138465;-75
2024/02/06 02:39:22;;;;;;;9.30;5.27;;;;;;;7.47;100.00;99575.11;4756219;60;1138878;-74
2024/02/06 02:44:28;;;;;;;6.10;3.97;;;;;;;7.43;100.00;99561.36;4787772;59;1136710;-72
2024/02/06 02:49:33;;;;;;;27.67;5.10;;;;;;;7.41;100.00;99558.85;4838138;58;1137059;-73
2024/02/06 02:54:39;;;;;;;13.13;5.80;;;;;;;7.38;100.00;99554.30;4876309;58;1138927;-72
2024/02/06 02:59:44;;;;;;;8.53;4.87;;;;;;;7.36;100.00;99555.74;4894769;58;1139469;-76
2024/02/06 03:04:51;;;;;;;11.43;5.23;;;;;;;7.33;100.00;99550.72;4900648;57;1136962;-74
2024/02/06 03:09:56;;;;;;;13.57;5.47;;;;;;;7.32;100.00;99539.87;4883837;58;1138774;-72
2024/02/06 03:15:04;;;;;;;8.53;5.35;;;;;;;7.29;100.00;99546.69;4959263;58;1138756;-73
2024/02/06 03:20:11;;;;;;;8.35;4.55;;;;;;;7.28;100.00;99538.91;4915063;58;1136705;-74
2024/02/06 03:25:17;;;;;;;13.73;7.03;;;;;;;7.26;100.00;99530.30;4899373;58;1136619;-74
2024/02/06 03:30:24;;;;;;;13.20;4.97;;;;;;;7.24;100.00;99526.48;4914814;58;1138979;-71
2024/02/06 03:35:29;;;;;;;9.43;5.00;;;;;;;7.22;100.00;99510.45;4904150;58;1138936;-74
2024/02/06 03:40:35;;;;;;;15.10;5.03;;;;;;;7.21;100.00;99523.25;4899285;58;1136823;-73
2024/02/06 03:45:41;;;;;;;6.83;4.53;;;;;;;7.20;100.00;99521.09;4929015;58;1138862;-72
2024/02/06 03:50:47;;;;;;;7.43;4.47;;;;;;;7.20;100.00;99508.42;4894257;58;1136626;-73
2024/02/06 03:55:52;;;;;;;7.30;4.07;;;;;;;7.18;100.00;99519.06;4901546;58;1136669;-73
2024/02/06 04:00:58;;;;;;;8.83;4.53;;;;;;;7.18;100.00;99507.23;4902108;58;1136688;-73
2024/02/06 04:06:04;;;;;;;6.50;3.45;;;;;;;7.18;100.00;99512.48;4920387;58;1137400;-75
2024/02/06 04:11:12;;;;;;;7.73;3.93;;;;;;;7.20;100.00;99504.00;4888479;58;1136778;-74
2024/02/06 04:16:18;;;;;;;7.97;3.40;;;;;;;7.22;100.00;99507.83;4897762;57;1136906;-75
2024/02/06 04:21:23;;;;;;;3.77;2.73;;;;;;;7.25;100.00;99512.84;4910700;58;1136801;-72
2024/02/06 04:26:29;;;;;;;8.58;3.40;;;;;;;7.28;100.00;99506.03;4896597;57;1136829;-74
2024/02/06 04:31:35;;;;;;;13.97;4.33;;;;;;;7.31;100.00;99509.74;4896493;58;1136758;-75
2024/02/06 04:36:42;;;;;;;3.43;2.43;;;;;;;7.32;100.00;99496.95;4920174;57;1138838;-75
2024/02/06 04:41:47;;;;;;;5.33;2.83;;;;;;;7.37;100.00;99500.02;5004768;57;1136536;-73
2024/02/06 04:46:53;;;;;;;7.27;3.13;;;;;;;7.44;100.00;99487.23;5022049;57;1136813;-75
2024/02/06 04:51:58;;;;;;;5.90;2.40;;;;;;;7.47;100.00;99489.14;5066095;56;1136800;-71
2024/02/06 04:57:04;;;;;;;5.58;2.40;;;;;;;7.52;100.00;99483.48;5078438;56;1137706;-76
2024/02/06 05:02:10;;;;;;;9.08;2.80;;;;;;;7.54;100.00;99481.56;5007227;57;1136531;-74
2024/02/06 05:07:16;;;;;;;6.70;2.57;;;;;;;7.54;100.00;99474.50;4984480;57;1136883;-72
2024/02/06 05:12:22;;;;;;;6.90;3.27;;;;;;;7.53;100.00;99464.94;5003335;57;1136750;-74
2024/02/06 05:17:28;;;;;;;6.73;2.77;;;;;;;7.55;100.00;99483.23;4997345;56;1136777;-79
2024/02/06 05:22:33;;;;;;;5.83;3.90;;;;;;;7.55;100.00;99484.55;4910594;58;1136648;-76
2024/02/06 05:27:39;;;;;;;8.23;3.00;;;;;;;7.54;100.00;99485.51;4926211;58;1136787;-75
2024/02/06 05:32:44;;;;;;;13.37;3.67;;;;;;;7.52;100.00;99484.31;4931016;58;1137017;-76
2024/02/06 05:37:50;;;;;;;3.27;2.67;;;;;;;7.51;100.00;99484.44;4928675;58;1138818;-75
2024/02/06 05:42:56;;;;;;;2.67;2.45;;;;;;;7.49;100.00;99490.30;4850692;58;1136985;-75
2024/02/06 05:48:01;;;;;;;6.20;2.97;;;;;;;7.48;100.00;99473.70;4734799;58;1137911;-74
2024/02/06 05:53:07;;;;;;;6.00;3.17;;;;;;;7.45;100.00;99476.58;4865627;59;1136741;-75
2024/02/06 05:58:12;;;;;;;6.53;2.52;;;;;;;7.45;100.00;99474.43;4786115;58;1137139;-75
2024/02/06 06:03:18;;;;;;;3.10;2.77;;;;;;;7.44;100.00;99473.59;4821030;58;1136948;-79
2024/02/06 06:08:25;;;;;;;4.03;3.05;;;;;;;7.44;100.00;99474.91;4903609;58;1137258;-75
2024/02/06 06:13:33;;;;;;;7.10;3.37;;;;;;;7.46;100.00;99459.00;4834834;58;1136694;-74
2024/02/06 06:18:37;;;;;;;4.63;3.03;;;;;;;7.51;100.00;99460.76;4856308;59;1136870;-74
2024/02/06 06:23:43;;;;;;;5.53;3.07;;;;;;;7.55;100.00;99454.29;4814974;59;1136953;-78
2024/02/06 06:28:48;;;;;;;4.07;2.67;;;;;;;7.60;100.00;99465.28;4751473;59;1136918;-72
2024/02/06 06:33:54;;;;;;;4.57;2.83;;;;;;;7.62;100.00;99466.84;4791057;59;1137313;-77
2024/02/06 06:38:59;;;;;;;6.20;2.37;;;;;;;7.64;100.00;99460.10;4841174;58;1136933;-75
2024/02/06 06:44:05;;;;;;;6.20;2.80;;;;;;;7.60;100.00;99471.39;4749940;59;1136856;-72
2024/02/06 06:49:12;;;;;;;7.05;2.80;;;;;;;7.53;100.00;99482.52;4794268;59;1136766;-75
2024/02/06 06:54:17;;;;;;;10.53;4.17;;;;;;;7.50;100.00;99482.77;4784154;59;1137300;-73
2024/02/06 06:59:23;;;;;;;8.03;3.47;;;;;;;7.41;100.00;99483.05;4794160;59;1139263;-76
2024/02/06 07:04:30;;;;;;;10.13;3.22;;;;;;;7.31;100.00;99481.65;4954791;58;1137009;-71
2024/02/06 07:09:35;;;;;;;5.25;2.95;;;;;;;7.24;100.00;99487.03;4896963;58;1138650;-70
2024/02/06 07:14:41;;;;;;;5.60;3.83;;;;;;;7.15;100.00;99485.63;4789236;59;1136734;-72
2024/02/06 07:19:47;;;;;;;8.60;3.60;;;;;;;7.06;100.00;99493.27;4767319;59;1136768;-89
2024/02/06 07:24:55;;;;;;;4.37;3.97;;;;;;;7.02;100.00;99483.14;4797994;58;1136833;-73
2024/02/06 07:30:03;;;;;;;6.97;3.60;;;;;;;6.98;100.00;99477.28;4873948;58;1136564;-76
2024/02/06 07:35:09;;;;;;;8.77;3.77;;;;;;;6.99;100.00;99472.86;4822438;57;1136584;-77
2024/02/06 07:40:15;;;;;;;4.97;3.50;;;;;;;6.98;100.00;99469.88;4768594;58;1136931;-76
2024/02/06 07:45:21;;;;;;;7.33;3.20;;;;;;;6.98;100.00;99488.28;4873580;58;1136653;-79
2024/02/06 07:50:26;;;;;;;6.30;3.27;;;;;;;6.97;100.00;99483.98;4863387;58;1136896;-78
2024/02/06 07:55:32;;;;;;;5.30;3.93;;;;;;;6.95;100.00;99491.98;4874460;58;1145122;-77
2024/02/06 08:00:38;;;;;;;4.53;2.98;;;;;;;6.94;100.00;99485.53;4837570;58;1137071;-75
2024/02/06 08:05:43;;;;;;;6.10;4.13;;;;;;;6.94;100.00;99475.02;4921680;58;1136751;-75
2024/02/06 08:10:50;;;;;;;16.60;3.90;;;;;;;6.93;100.00;99475.48;4845093;58;1136618;-74
2024/02/06 08:15:56;;;;;;;4.62;3.92;;;;;;;6.92;100.00;99484.81;4862077;58;1138892;-80
2024/02/06 08:21:01;;;;;;;12.87;4.90;;;;;;;6.91;100.00;99480.50;4800344;59;1136808;-77
2024/02/06 08:26:07;;;;;;;16.40;4.08;;;;;;;6.88;100.00;99475.01;4767421;59;1138847;-80
2024/02/06 08:31:13;;;;;;;4.67;3.07;;;;;;;6.87;100.00;99485.67;4805212;59;1139065;-81
2024/02/06 08:36:19;;;;;;;5.40;4.20;;;;;;;6.86;100.00;99478.27;4898611;58;1136997;-80
2024/02/06 08:41:28;;;;;;;12.87;4.07;;;;;;;6.85;100.00;99471.81;4832230;58;1145964;-79
2024/02/06 08:46:32;;;;;;;4.40;2.90;;;;;;;6.86;100.00;99473.48;4852251;58;1139049;-80
2024/02/06 08:51:38;;;;;;;8.65;4.42;;;;;;;6.85;100.00;99487.58;4968251;57;1136873;-83
2024/02/06 08:56:43;;;;;;;13.57;4.40;;;;;;;6.84;100.00;99481.48;4900576;58;1136908;-78
2024/02/06 09:01:49;;;;;;;8.40;4.70;;;;;;;6.84;100.00;99463.56;4868194;58;1138582;-83
2024/02/06 09:06:54;;;;;;;5.17;3.47;;;;;;;6.85;100.00;99469.19;4772711;58;1136875;-77
2024/02/06 09:12:00;;;;;;;5.87;3.47;;;;;;;6.88;100.00;99459.72;4824577;58;1136701;-80
2024/02/06 09:17:06;;;;;;;7.37;3.97;;;;;;;6.90;100.00;99463.06;4832616;58;1136709;-78
2024/02/06 09:22:11;;;;;;;7.17;4.17;;;;;;;6.92;100.00;99446.70;4829687;58;1136822;-74
2024/02/06 09:27:17;;;;;;;9.57;3.50;;;;;;;6.95;100.00;99443.83;4825442;58;1136804;-81
2024/02/06 09:32:23;;;;;;;7.73;4.17;;;;;;;6.94;100.00;99446.09;4867582;58;1136802;-78
2024/02/06 09:37:29;;;;;;;9.85;4.22;;;;;;;6.96;100.00;99445.03;4904172;58;1136753;-79
2024/02/06 09:42:35;;;;;;;12.67;3.80;;;;;;;6.96;100.00;99449.45;4912648;58;1136761;-83
2024/02/06 09:47:45;;;;;;;9.20;4.78;;;;;;;6.96;100.00;99442.40;4792005;59;1139110;-84
2024/02/06 09:52:52;;;;;;;6.70;3.60;;;;;;;6.96;100.00;99448.12;4901753;59;1136876;-78
2024/02/06 09:57:59;;;;;;;11.40;4.72;;;;;;;6.95;100.00;99441.20;4905982;57;1137038;-78
2024/02/06 10:03:14;;;;;;;5.85;3.22;;;;;;;6.96;100.00;99445.50;4986545;57;1138743;-79
2024/02/06 10:08:20;;;;;;;6.40;4.00;;;;;;;6.96;100.00;99439.77;5010340;56;1136482;-78
2024/02/06 10:13:26;;;;;;;6.80;3.73;;;;;;;7.01;100.00;99442.04;4842474;57;1137521;-82
2024/02/06 10:18:32;;;;;;;11.63;3.90;;;;;;;7.05;100.00;99440.33;5012447;57;1136746;-82
2024/02/06 10:23:37;;;;;;;5.57;3.60;;;;;;;7.08;100.00;99438.42;4983185;57;1138603;-77
2024/02/06 10:28:43;;;;;;;14.43;4.75;;;;;;;7.13;100.00;99424.44;5043244;57;1136684;-81
2024/02/06 10:33:48;;;;;;;9.73;3.53;;;;;;;7.17;100.00;99434.59;5008887;57;1139717;-78
2024/02/06 10:38:57;;;;;;;21.80;8.63;;;;;;;7.17;100.00;99425.39;5097349;57;1136798;-74
2024/02/06 10:44:14;;;;;;;8.63;3.17;;;;;;;7.19;100.00;99431.33;4970335;57;1139867;-78
2024/02/06 10:49:19;;;;;;;5.80;3.60;;;;;;;7.23;100.00;99419.61;5041849;57;1136900;-78
2024/02/06 10:54:25;;;;;;;34.73;11.80;;;;;;;7.27;100.00;99434.19;5037302;57;1136841;-82
2024/02/06 10:59:35;;;;;;;26.97;9.90;;;;;;;7.34;100.00;99412.16;5005419;57;1140891;-82
2024/02/06 11:04:42;;;;;;;14.03;4.00;;;;;;;7.40;100.00;99424.81;4977022;58;1138921;-78
2024/02/06 11:09:49;;;;;;;25.23;8.20;;;;;;;7.46;100.00;99410.34;4975238;58;1138854;-78
2024/02/06 11:14:59;;;;;;;6.07;2.40;;;;;;;7.50;100.00;99409.09;4925949;58;1138994;-78
2024/02/06 11:20:09;;;;;;;4.53;2.77;;;;;;;7.55;100.00;99408.25;5082098;57;1136971;-82
2024/02/06 11:25:17;;;;;;;14.90;4.20;;;;;;;7.57;100.00;99387.43;5112194;57;1136699;-80
2024/02/06 11:30:22;;;;;;;3.60;1.67;;;;;;;7.65;100.00;99394.19;5092071;57;1138728;-79
2024/02/06 11:35:28;;;;;;;15.10;4.85;;;;;;;7.71;100.00;99387.59;4957637;57;1136731;-79
2024/02/06 11:40:34;;;;;;;2.35;2.12;;;;;;;7.75;100.00;99386.38;4770124;59;1139581;-79
2024/02/06 11:45:43;;;;;;;5.03;2.37;;;;;;;7.82;100.00;99370.89;4695701;61;1136721;-79
2024/02/06 11:50:48;;;;;;;5.95;2.77;;;;;;;7.88;100.00;99375.65;4746152;59;1136505;-77
2024/02/06 11:55:57;;;;;;;4.57;2.30;;;;;;;7.92;100.00;99371.32;4702539;60;1136906;-77
2024/02/06 12:01:06;;;;;;;6.37;2.90;;;;;;;7.95;100.00;99363.13;4947590;57;1136682;-78
2024/02/06 12:06:09;;;;;;;5.60;2.47;;;;;;;8.01;100.00;99361.79;4995255;57;1136653;-77
2024/02/06 12:11:15;;;;;;;9.83;2.53;;;;;;;8.06;100.00;99350.39;5014209;57;1136533;-75
2024/02/06 12:16:21;;;;;;;6.27;2.23;;;;;;;8.11;100.00;99338.96;5042332;57;1136901;-75
2024/02/06 12:21:27;;;;;;;5.10;1.80;;;;;;;8.15;100.00;99339.05;4993784;57;1136373;-71
2024/02/06 12:26:34;;;;;;;6.50;2.10;;;;;;;8.19;100.00;99335.20;4988821;57;1136377;-76
2024/02/06 12:31:40;;;;;;;14.53;4.60;;;;;;;8.24;100.00;99335.64;5034418;56;1136887;-78
2024/02/06 12:36:46;;;;;;;6.97;3.27;;;;;;;8.25;100.00;99316.21;5040308;57;1139129;-77
2024/02/06 12:42:06;;;;;;;4.50;2.83;;;;;;;8.28;100.00;99322.53;4996855;57;1136619;-79
2024/02/06 12:47:12;;;;;;;6.30;2.90;;;;;;;8.33;100.00;99311.64;5014038;57;1136845;-75
2024/02/06 12:52:19;;;;;;;4.03;1.77;;;;;;;8.37;100.00;99321.78;5031057;56;1136922;-77
2024/02/06 12:57:24;;;;;;;2.77;2.03;;;;;;;8.43;100.00;99316.44;5028979;57;1136962;-77
2024/02/06 13:02:30;;;;;;;9.17;2.07;;;;;;;8.46;100.00;99310.91;4994358;57;1136726;-77
2024/02/06 13:07:36;;;;;;;9.00;2.03;;;;;;;8.46;100.00;99309.59;5022799;57;1136747;-76
2024/02/06 13:12:42;;;;;;;4.13;1.63;;;;;;;8.47;100.00;99313.89;5027334;57;1136882;-73
2024/02/06 13:17:47;;;;;;;2.67;1.30;;;;;;;8.50;100.00;99312.31;5004542;56;1136765;-77
2024/02/06 13:22:53;;;;;;;2.87;1.67;;;;;;;8.56;100.00;99290.67;5010081;56;1136522;-74
2024/02/06 13:27:59;;;;;;;5.17;1.50;;;;;;;8.59;100.00;99291.72;5034073;57;1136497;-76
2024/02/06 13:33:07;;;;;;;4.53;1.90;;;;;;;8.62;100.00;99287.50;5038450;56;1136947;-73
2024/02/06 13:38:13;;;;;;;5.23;1.33;;;;;;;8.68;100.00;99280.38;5000318;56;1136725;-77
2024/02/06 13:43:18;;;;;;;4.40;2.10;;;;;;;8.71;100.00;99265.58;5053117;57;1136434;-74
2024/02/06 13:48:24;;;;;;;5.13;1.37;;;;;;;8.78;100.00;99276.42;5018567;57;1136567;-76
2024/02/06 13:53:30;;;;;;;4.60;1.60;;;;;;;8.84;100.00;99259.23;5009577;57;1136601;-76
2024/02/06 13:58:35;;;;;;;1.20;1.03;;;;;;;8.90;100.00;99252.06;5100933;57;1136645;-76
2024/02/06 14:03:41;;;;;;;7.30;1.70;;;;;;;8.94;100.00;99252.97;5015866;57;1136534;-77
2024/02/06 14:08:47;;;;;;;8.53;3.08;;;;;;;8.99;100.00;99225.70;4936965;58;1136479;-76
2024/02/06 14:13:53;;;;;;;1.10;1.00;;;;;;;9.04;100.00;99241.09;4852993;58;1137474;-78
2024/02/06 14:19:04;;;;;;;3.05;1.50;;;;;;;9.06;100.00;99225.95;4904530;58;1136835;-76
2024/02/06 14:24:06;;;;;;;2.90;1.03;;;;;;;9.05;100.00;99222.48;4783300;59;1136982;-78
2024/02/06 14:29:11;;;;;;;4.40;2.60;;;;;;;9.05;100.00;99222.97;4823139;58;1136826;-78
2024/02/06 14:34:17;;;;;;;2.20;1.40;;;;;;;9.05;100.00;99219.02;4899101;57;1136800;-79
2024/02/06 14:39:23;;;;;;;5.20;1.70;;;;;;;9.00;100.00;99199.69;4937929;57;1136597;-77
2024/02/06 14:44:29;;;;;;;6.67;2.03;;;;;;;8.95;100.00;99202.39;4917434;57;1137470;-77
2024/02/06 14:49:34;;;;;;;9.83;5.17;;;;;;;8.90;100.00;99201.48;5033590;57;1136684;-77
2024/02/06 14:54:40;;;;;;;4.23;1.53;;;;;;;8.85;100.00;99192.34;4983168;56;1136783;-78
2024/02/06 14:59:47;;;;;;;2.73;1.17;;;;;;;8.87;100.00;99187.73;4992989;57;1136803;-80
2024/02/06 15:04:54;;;;;;;3.93;1.27;;;;;;;8.88;100.00;99198.63;4956765;57;1137136;-77
2024/02/06 15:09:59;;;;;;;1.40;0.90;;;;;;;8.89;100.00;99190.59;5046542;57;1136785;-76
2024/02/06 15:15:06;;;;;;;13.30;2.30;;;;;;;8.91;100.00;99177.27;4874761;58;1137689;-79
2024/02/06 15:20:13;;;;;;;4.87;1.80;;;;;;;8.95;100.00;99166.79;4846439;58;1138971;-76
2024/02/06 15:25:18;;;;;;;1.50;1.40;;;;;;;8.97;100.00;99163.53;4766250;59;1136920;-78
2024/02/06 15:30:24;;;;;;;2.60;1.17;;;;;;;8.98;100.00;99164.70;4785089;59;1137164;-77
2024/02/06 15:35:30;;;;;;;4.60;2.60;;;;;;;9.02;100.00;99158.64;4856651;58;1136772;-78
2024/02/06 15:40:36;;;;;;;10.40;3.13;;;;;;;9.03;100.00;99162.45;4849438;58;1136990;-77
2024/02/06 15:45:46;;;;;;;5.40;1.67;;;;;;;9.04;100.00;99148.30;4899279;58;1138647;-77
2024/02/06 15:50:49;;;;;;;5.70;1.90;;;;;;;9.07;100.00;99148.02;4899852;58;1136664;-78
2024/02/06 15:55:56;;;;;;;5.40;1.73;;;;;;;9.09;100.00;99140.80;4874895;58;1136958;-78
2024/02/06 16:01:02;;;;;;;6.80;1.67;;;;;;;9.13;100.00;99131.63;4913245;57;1216114;-78
2024/02/06 16:06:08;;;;;;;1.75;1.30;;;;;;;9.18;100.00;99124.59;4917488;57;1136714;-79
2024/02/06 16:11:14;;;;;;;4.40;1.63;;;;;;;9.21;100.00;99108.96;4899519;57;1136709;-77
2024/02/06 16:16:20;;;;;;;3.37;1.77;;;;;;;9.24;100.00;99104.23;4888018;58;1136524;-80
2024/02/06 16:21:25;;;;;;;1.23;1.03;;;;;;;9.27;100.00;99095.20;4851338;58;1136971;-79
2024/02/06 16:26:32;;;;;;;2.67;1.43;;;;;;;9.29;100.00;99081.38;4857022;58;1136593;-79
2024/02/06 16:31:39;;;;;;;4.80;1.33;;;;;;;9.33;100.00;99094.60;4912967;57;1137043;-80
2024/02/06 16:36:45;;;;;;;3.10;1.57;;;;;;;9.33;100.00;99080.09;4887765;57;1137202;-76
2024/02/06 16:41:51;;;;;;;2.23;1.37;;;;;;;9.37;100.00;99081.47;4960835;58;1136988;-77
2024/02/06 16:46:56;;;;;;;2.10;0.97;;;;;;;9.38;100.00;99098.48;4931396;58;1136699;-78
2024/02/06 16:52:03;;;;;;;5.57;2.53;;;;;;;9.38;100.00;99078.69;5030926;57;1136883;-79
2024/02/06 16:57:09;;;;;;;3.00;1.50;;;;;;;9.39;100.00;99060.56;5012315;57;1136350;-78
2024/02/06 17:02:16;;;;;;;2.20;1.33;;;;;;;9.41;100.00;99070.48;5016608;57;1136963;-75
2024/02/06 17:07:22;;;;;;;3.87;1.93;;;;;;;9.44;100.00;99062.28;5041184;57;1136582;-78
2024/02/06 17:12:28;;;;;;;1.20;1.10;;;;;;;9.44;100.00;99046.45;5054362;57;1136614;-78
2024/02/06 17:17:33;;;;;;;5.93;1.40;;;;;;;9.46;100.00;99041.86;5023229;57;1136955;-79
2024/02/06 17:22:45;;;;;;;3.60;1.50;;;;;;;9.46;100.00;99035.75;5059320;57;1136546;-78
2024/02/06 17:27:47;;;;;;;3.57;1.13;;;;;;;9.47;100.00;99030.30;5072336;56;1137238;-81
2024/02/06 17:32:53;;;;;;;5.07;3.00;;;;;;;9.48;100.00;99021.89;5061862;56;1136531;-78
2024/02/06 17:37:58;;;;;;;7.87;2.58;;;;;;;9.49;100.00;99029.66;5021304;56;1169273;-77
2024/02/06 17:43:06;;;;;;;8.97;2.47;;;;;;;9.48;100.00;99010.84;4994736;56;1137435;-78
2024/02/06 17:48:13;;;;;;;3.17;1.57;;;;;;;9.47;100.00;99007.86;4929399;57;1250139;-78
2024/02/06 17:53:21;;;;;;;7.47;3.30;;;;;;;9.46;100.00;99000.13;4855604;58;1136831;-78
2024/02/06 17:58:27;;;;;;;4.23;1.93;;;;;;;9.46;100.00;99002.27;4899354;57;1136930;-77
2024/02/06 18:03:33;;;;;;;1.93;1.17;;;;;;;9.44;100.00;98992.35;4770450;59;1136725;-78
2024/02/06 18:08:38;;;;;;;13.00;3.27;;;;;;;9.45;100.00;98985.27;4753060;59;1136731;-79
2024/02/06 18:13:44;;;;;;;4.22;2.00;;;;;;;9.44;100.00;98975.69;4825372;59;1138711;-77
2024/02/06 18:18:49;;;;;;;8.97;2.43;;;;;;;9.44;100.00;98980.48;5000229;57;1136821;-81
2024/02/06 18:23:56;;;;;;;11.35;1.92;;;;;;;9.48;100.00;98978.34;4989241;56;1136667;-79
2024/02/06 18:29:02;;;;;;;4.12;0.90;;;;;;;9.50;100.00;98975.07;4914443;57;1138861;-80
2024/02/06 18:34:08;;;;;;;6.72;1.72;;;;;;;9.52;100.00;98962.56;4965191;58;1136937;-82
2024/02/06 18:39:13;;;;;;;8.85;1.90;;;;;;;9.55;100.00;98961.44;4942168;57;1136823;-84
2024/02/06 18:44:19;;;;;;;2.17;1.60;;;;;;;9.58;100.00;98966.42;5068634;56;1136780;-80
2024/02/06 18:49:24;;;;;;;1.37;1.27;;;;;;;9.60;100.00;98944.67;5093498;56;1136851;-81
2024/02/06 18:54:34;;;;;;;1.33;0.77;;;;;;;9.57;100.00;98929.13;4988579;56;1136769;-82
2024/02/06 18:59:40;;;;;;;3.83;2.00;;;;;;;9.46;100.00;98940.26;4898474;57;1136688;-82
2024/02/06 19:04:45;;;;;;;7.90;2.80;;;;;;;9.43;100.00;98922.08;4890492;58;1136820;-79
2024/02/06 19:09:51;;;;;;;3.07;1.90;;;;;;;9.39;100.00;98935.23;4907705;57;1136842;-81
2024/02/06 19:14:57;;;;;;;8.43;1.53;;;;;;;9.33;100.00;98916.52;4819745;58;1136893;-80
2024/02/06 19:20:03;;;;;;;4.42;1.75;;;;;;;9.27;100.00;98921.92;4867706;58;1136720;-79
2024/02/06 19:25:12;;;;;;;3.92;1.82;;;;;;;9.25;100.00;98917.28;4855932;58;1137022;-80
2024/02/06 19:30:16;;;;;;;10.07;2.13;;;;;;;9.22;100.00;98907.02;4843756;58;1136575;-81
2024/02/06 19:35:22;;;;;;;3.43;1.93;;;;;;;9.16;100.00;98914.23;4847085;58;1139197;-80
2024/02/06 19:40:27;;;;;;;3.40;1.87;;;;;;;9.08;100.00;98895.19;4885769;58;1136837;-82
2024/02/06 19:45:34;;;;;;;2.83;1.70;;;;;;;9.04;100.00;98880.63;4875374;58;1136802;-78
2024/02/06 19:50:42;;;;;;;2.80;2.13;;;;;;;9.02;100.00;98891.81;4836416;58;1136935;-80
2024/02/06 19:55:49;;;;;;;8.40;2.90;;;;;;;9.05;100.00;98880.97;4830433;59;1136514;-80
2024/02/06 20:00:54;;;;;;;3.67;1.97;;;;;;;9.09;100.00;98870.95;4869133;58;1136845;-80
2024/02/06 20:06:00;;;;;;;3.35;1.95;;;;;;;9.07;100.00;98863.19;4946980;57;1136735;-79
2024/02/06 20:11:06;;;;;;;6.97;3.10;;;;;;;9.08;100.00;98852.16;5018529;57;1136752;-79
2024/02/06 20:16:12;;;;;;;7.35;2.95;;;;;;;9.11;100.00;98866.37;5024662;57;1136883;-79
2024/02/06 20:21:28;;;;;;;10.68;3.55;;;;;;;9.13;100.00;98855.19;4965515;56;1137105;-78
2024/02/06 20:26:34;;;;;;;3.17;2.50;;;;;;;9.08;100.00;98841.13;4895975;58;1139260;-83
2024/02/06 20:31:40;;;;;;;17.83;4.63;;;;;;;9.04;100.00;98837.12;4880425;57;1136901;-80
2024/02/06 20:36:46;;;;;;;4.73;2.20;;;;;;;9.05;100.00;98828.72;4933663;58;1138692;-82
2024/02/06 20:41:53;;;;;;;14.25;4.20;;;;;;;9.08;100.00;98831.89;4884637;57;1136981;-83
2024/02/06 20:46:59;;;;;;;11.20;3.98;;;;;;;9.11;100.00;98828.13;4922471;58;1138718;-80
2024/02/06 20:52:05;;;;;;;10.05;3.47;;;;;;;9.14;100.00;98817.28;4860186;58;1138784;-85
2024/02/06 20:57:11;;;;;;;12.65;4.37;;;;;;;9.20;100.00;98822.42;4952695;57;1138914;-85
2024/02/06 21:02:17;;;;;;;9.70;2.40;;;;;;;9.23;100.00;98809.77;4945541;57;1138866;-80
2024/02/06 21:07:23;;;;;;;7.17;2.17;;;;;;;9.27;100.00;98819.53;4977081;57;1137044;-80
2024/02/06 21:12:29;;;;;;;6.07;2.50;;;;;;;9.34;100.00;98812.16;4941065;57;1136809;-81
2024/02/06 21:17:35;;;;;;;10.50;2.70;;;;;;;9.42;100.00;98808.28;4902240;57;1136904;-85
2024/02/06 21:22:41;;;;;;;6.57;2.30;;;;;;;9.47;100.00;98803.87;4885209;58;1138915;-84
2024/02/06 21:27:48;;;;;;;3.70;2.60;;;;;;;9.53;100.00;98772.89;4899768;58;1136560;-80
2024/02/06 21:32:53;;;;;;;4.97;2.43;;;;;;;9.59;100.00;98785.97;4970068;57;1136622;-85
2024/02/06 21:38:00;;;;;;;4.43;2.30;;;;;;;9.64;100.00;98759.91;5009536;57;1136773;-82
2024/02/06 21:43:05;;;;;;;2.58;1.75;;;;;;;9.70;100.00;98775.14;4971849;57;1136940;-82
2024/02/06 21:48:11;;;;;;;6.58;2.70;;;;;;;9.71;100.00;98771.52;4912159;57;1136979;-81
2024/02/06 21:53:16;;;;;;;3.33;1.92;;;;;;;9.70;100.00;98756.17;4984860;57;1136693;-84
2024/02/06 21:58:22;;;;;;;2.33;1.73;;;;;;;9.70;100.00;98754.02;4957726;57;1136749;-84
2024/02/06 22:03:27;;;;;;;4.20;3.27;;;;;;;9.70;100.00;98735.55;4973675;57;1136942;-82
2024/02/06 22:08:33;;;;;;;7.00;2.37;;;;;;;9.76;100.00;98734.92;5017970;57;1136493;-83
2024/02/06 22:13:39;;;;;;;9.70;2.43;;;;;;;9.78;100.00;98736.89;5032527;57;1136834;-83
2024/02/06 22:18:45;;;;;;;4.57;1.63;;;;;;;9.78;100.00;98728.97;5032081;57;1136587;-77
2024/02/06 22:23:50;;;;;;;4.50;1.90;;;;;;;9.76;100.00;98717.28;5038318;57;1136710;-83
2024/02/06 22:28:56;;;;;;;6.20;2.23;;;;;;;9.79;100.00;98717.42;4970066;57;1136911;-80
2024/02/06 22:34:01;;;;;;;9.73;2.35;;;;;;;9.80;100.00;98713.80;4968620;57;1136667;-82
2024/02/06 22:39:07;;;;;;;4.53;1.55;;;;;;;9.83;100.00;98710.85;5011750;57;1136879;-82
2024/02/06 22:44:12;;;;;;;5.28;1.52;;;;;;;9.83;100.00;98702.94;4974651;57;1137333;-84
2024/02/06 22:49:18;;;;;;;6.93;2.43;;;;;;;9.83;100.00;98701.12;4970395;57;1136595;-80
2024/02/06 22:54:23;;;;;;;7.37;2.03;;;;;;;9.84;100.00;98689.58;4987578;57;1136708;-78
2024/02/06 22:59:29;;;;;;;2.83;1.87;;;;;;;9.84;100.00;98689.58;4983862;57;1136443;-81
2024/02/06 23:04:34;;;;;;;4.20;2.40;;;;;;;9.85;100.00;98686.45;4947519;57;1136784;-82
2024/02/06 23:09:43;;;;;;;2.13;1.67;;;;;;;9.87;100.00;98691.08;5027154;57;1136663;-83
2024/02/06 23:14:47;;;;;;;4.03;1.67;;;;;;;9.88;100.00;98686.96;5027650;57;1137017;-78
2024/02/06 23:19:52;;;;;;;2.87;1.87;;;;;;;9.90;100.00;98685.98;5018733;57;1136937;-76
2024/02/06 23:24:58;;;;;;;2.55;1.45;;;;;;;9.91;100.00;98680.54;4998694;57;1136604;-79